sensor_id;sensor_type;location;lat;lon;timestamp;temperature;humidity
12632;DHT22;6381;45.748;12.106;2022-10-17T00:01:49;17.80;99.90
12632;DHT22;6381;45.748;12.106;2022-10-17T00:04:20;17.70;99.90
12632;DHT22;6381;45.748;12.106;2022-10-17T00:06:49;17.60;99.90
12632;DHT22;6381;45.748;12.106;2022-10-17T00:09:18;17.20;99.90
12632;DHT22;6381;45.748;12.106;2022-10-17T00:11:47;17.20;99.90
12632;DHT22;6381;45.748;12.106;2022-10-17T00:14:16;17.30;99.90
12632;DHT22;6381;45.748;12.106;2022-10-17T00:16:45;17.40;99.90
12632;DHT22;6381;45.748;12.106;2022-10-17T00:19:15;17.50;99.90
12632;DHT22;6381;45.748;12.106;2022-10-17T00:21:46;17.50;99.90
12632;DHT22;6381;45.748;12.106;2022-10-17T00:24:16;17.50;99.90
12632;DHT22;6381;45.748;12.106;2022-10-17T00:26:45;17.50;99.90
12632;DHT22;6381;45.748;12.106;2022-10-17T00:29:15;17.60;99.90
12632;DHT22;6381;45.748;12.106;2022-10-17T00:31:46;17.60;99.90
12632;DHT22;6381;45.748;12.106;2022-10-17T00:34:16;17.60;99.90
12632;DHT22;6381;45.748;12.106;2022-10-17T00:36:46;17.50;99.90
12632;DHT22;6381;45.748;12.106;2022-10-17T00:39:16;17.40;99.90
12632;DHT22;6381;45.748;12.106;2022-10-17T00:41:45;17.50;99.90
12632;DHT22;6381;45.748;12.106;2022-10-17T00:47:22;17.50;99.90
12632;DHT22;6381;45.748;12.106;2022-10-17T00:49:51;17.40;99.90
12632;DHT22;6381;45.748;12.106;2022-10-17T00:52:25;17.40;99.90
12632;DHT22;6381;45.748;12.106;2022-10-17T00:54:57;17.40;99.90
12632;DHT22;6381;45.748;12.106;2022-10-17T00:57:29;17.10;99.90
12632;DHT22;6381;45.748;12.106;2022-10-17T01:00:03;17.10;99.90
12632;DHT22;6381;45.748;12.106;2022-10-17T01:02:34;17.30;99.90
12632;DHT22;6381;45.748;12.106;2022-10-17T01:05:04;17.10;99.90
12632;DHT22;6381;45.748;12.106;2022-10-17T01:07:36;17.10;99.90
12632;DHT22;6381;45.748;12.106;2022-10-17T01:10:07;17.20;99.90
12632;DHT22;6381;45.748;12.106;2022-10-17T01:12:56;17.20;99.90
12632;DHT22;6381;45.748;12.106;2022-10-17T01:15:36;17.20;99.90
12632;DHT22;6381;45.748;12.106;2022-10-17T01:18:14;17.20;99.90
12632;DHT22;6381;45.748;12.106;2022-10-17T01:24:47;17.20;99.90
12632;DHT22;6381;45.748;12.106;2022-10-17T01:31:07;17.10;99.90
12632;DHT22;6381;45.748;12.106;2022-10-17T01:33:45;17.00;99.90
12632;DHT22;6381;45.748;12.106;2022-10-17T01:36:30;17.00;99.90
12632;DHT22;6381;45.748;12.106;2022-10-17T01:39:12;17.00;99.90
12632;DHT22;6381;45.748;12.106;2022-10-17T01:41:48;17.00;99.90
12632;DHT22;6381;45.748;12.106;2022-10-17T01:44:21;17.00;99.90
12632;DHT22;6381;45.748;12.106;2022-10-17T01:46:58;16.80;99.90
12632;DHT22;6381;45.748;12.106;2022-10-17T01:49:31;16.90;99.90
12632;DHT22;6381;45.748;12.106;2022-10-17T01:52:05;16.80;99.90
12632;DHT22;6381;45.748;12.106;2022-10-17T01:54:39;16.90;99.90
12632;DHT22;6381;45.748;12.106;2022-10-17T01:57:14;16.90;99.90
12632;DHT22;6381;45.748;12.106;2022-10-17T01:59:48;17.00;99.90
12632;DHT22;6381;45.748;12.106;2022-10-17T02:02:22;16.70;99.90
12632;DHT22;6381;45.748;12.106;2022-10-17T02:04:54;16.60;99.90
12632;DHT22;6381;45.748;12.106;2022-10-17T02:07:25;16.60;99.90
12632;DHT22;6381;45.748;12.106;2022-10-17T02:09:54;16.50;99.90
12632;DHT22;6381;45.748;12.106;2022-10-17T02:12:43;16.50;99.90
12632;DHT22;6381;45.748;12.106;2022-10-17T02:15:33;16.50;99.90
12632;DHT22;6381;45.748;12.106;2022-10-17T02:18:19;16.40;99.90
12632;DHT22;6381;45.748;12.106;2022-10-17T02:20:53;16.50;99.90
12632;DHT22;6381;45.748;12.106;2022-10-17T02:23:29;16.40;99.90
12632;DHT22;6381;45.748;12.106;2022-10-17T02:26:09;16.30;99.90
12632;DHT22;6381;45.748;12.106;2022-10-17T02:28:42;16.40;99.90
12632;DHT22;6381;45.748;12.106;2022-10-17T02:31:14;16.30;99.90
12632;DHT22;6381;45.748;12.106;2022-10-17T02:33:48;16.30;99.90
12632;DHT22;6381;45.748;12.106;2022-10-17T02:36:21;16.40;99.90
12632;DHT22;6381;45.748;12.106;2022-10-17T02:38:53;16.20;99.90
12632;DHT22;6381;45.748;12.106;2022-10-17T02:41:23;16.20;99.90
12632;DHT22;6381;45.748;12.106;2022-10-17T02:43:53;16.40;99.90
12632;DHT22;6381;45.748;12.106;2022-10-17T02:46:28;16.10;99.90
12632;DHT22;6381;45.748;12.106;2022-10-17T02:49:02;15.90;99.90
12632;DHT22;6381;45.748;12.106;2022-10-17T02:51:39;16.00;99.90
12632;DHT22;6381;45.748;12.106;2022-10-17T02:54:14;16.00;99.90
12632;DHT22;6381;45.748;12.106;2022-10-17T02:56:50;16.30;99.90
12632;DHT22;6381;45.748;12.106;2022-10-17T02:59:22;16.20;99.90
12632;DHT22;6381;45.748;12.106;2022-10-17T03:01:53;16.20;99.90
12632;DHT22;6381;45.748;12.106;2022-10-17T03:04:25;16.20;99.90
12632;DHT22;6381;45.748;12.106;2022-10-17T03:06:54;16.10;99.90
12632;DHT22;6381;45.748;12.106;2022-10-17T03:09:23;16.20;99.90
12632;DHT22;6381;45.748;12.106;2022-10-17T03:11:53;16.20;99.90
12632;DHT22;6381;45.748;12.106;2022-10-17T03:14:22;16.20;99.90
12632;DHT22;6381;45.748;12.106;2022-10-17T03:16:51;16.00;99.90
12632;DHT22;6381;45.748;12.106;2022-10-17T03:19:21;16.00;99.90
12632;DHT22;6381;45.748;12.106;2022-10-17T03:21:53;16.10;99.90
12632;DHT22;6381;45.748;12.106;2022-10-17T03:24:23;16.00;99.90
12632;DHT22;6381;45.748;12.106;2022-10-17T03:26:52;16.10;99.90
12632;DHT22;6381;45.748;12.106;2022-10-17T03:29:22;16.10;99.90
12632;DHT22;6381;45.748;12.106;2022-10-17T03:31:51;15.70;99.90
12632;DHT22;6381;45.748;12.106;2022-10-17T03:34:20;15.90;99.90
12632;DHT22;6381;45.748;12.106;2022-10-17T03:36:49;15.80;99.90
12632;DHT22;6381;45.748;12.106;2022-10-17T03:39:20;15.90;99.90
12632;DHT22;6381;45.748;12.106;2022-10-17T03:41:49;15.90;99.90
12632;DHT22;6381;45.748;12.106;2022-10-17T03:44:19;15.90;99.90
12632;DHT22;6381;45.748;12.106;2022-10-17T03:46:48;15.80;99.90
12632;DHT22;6381;45.748;12.106;2022-10-17T03:49:17;15.60;99.90
12632;DHT22;6381;45.748;12.106;2022-10-17T03:51:47;15.60;99.90
12632;DHT22;6381;45.748;12.106;2022-10-17T03:54:17;15.30;99.90
12632;DHT22;6381;45.748;12.106;2022-10-17T03:56:47;15.50;99.90
12632;DHT22;6381;45.748;12.106;2022-10-17T03:59:19;15.50;99.90
12632;DHT22;6381;45.748;12.106;2022-10-17T04:01:57;15.70;99.90
12632;DHT22;6381;45.748;12.106;2022-10-17T04:04:27;15.50;99.90
12632;DHT22;6381;45.748;12.106;2022-10-17T04:06:58;15.80;99.90
12632;DHT22;6381;45.748;12.106;2022-10-17T04:09:27;15.70;99.90
12632;DHT22;6381;45.748;12.106;2022-10-17T04:12:11;15.80;99.90
12632;DHT22;6381;45.748;12.106;2022-10-17T04:14:44;15.90;99.90
12632;DHT22;6381;45.748;12.106;2022-10-17T04:17:14;15.80;99.90
12632;DHT22;6381;45.748;12.106;2022-10-17T04:19:44;15.80;99.90
12632;DHT22;6381;45.748;12.106;2022-10-17T04:22:16;15.80;99.90
12632;DHT22;6381;45.748;12.106;2022-10-17T04:24:46;15.90;99.90
12632;DHT22;6381;45.748;12.106;2022-10-17T04:27:26;15.80;99.90
12632;DHT22;6381;45.748;12.106;2022-10-17T04:29:55;15.90;99.90
12632;DHT22;6381;45.748;12.106;2022-10-17T04:32:25;15.90;99.90
12632;DHT22;6381;45.748;12.106;2022-10-17T04:34:59;15.80;99.90
12632;DHT22;6381;45.748;12.106;2022-10-17T04:37:29;15.70;99.90
12632;DHT22;6381;45.748;12.106;2022-10-17T04:40:01;15.70;99.90
12632;DHT22;6381;45.748;12.106;2022-10-17T04:42:33;15.60;99.90
12632;DHT22;6381;45.748;12.106;2022-10-17T04:45:04;15.50;99.90
12632;DHT22;6381;45.748;12.106;2022-10-17T04:47:34;15.50;99.90
12632;DHT22;6381;45.748;12.106;2022-10-17T04:50:05;15.50;99.90
12632;DHT22;6381;45.748;12.106;2022-10-17T04:52:35;15.40;99.90
12632;DHT22;6381;45.748;12.106;2022-10-17T04:55:07;15.50;99.90
12632;DHT22;6381;45.748;12.106;2022-10-17T04:57:39;15.40;99.90
12632;DHT22;6381;45.748;12.106;2022-10-17T05:00:19;15.30;99.90
12632;DHT22;6381;45.748;12.106;2022-10-17T05:02:58;15.30;99.90
12632;DHT22;6381;45.748;12.106;2022-10-17T05:05:28;15.40;99.90
12632;DHT22;6381;45.748;12.106;2022-10-17T05:08:00;15.50;99.90
12632;DHT22;6381;45.748;12.106;2022-10-17T05:10:35;15.60;99.90
12632;DHT22;6381;45.748;12.106;2022-10-17T05:13:06;15.60;99.90
12632;DHT22;6381;45.748;12.106;2022-10-17T05:15:36;15.70;99.90
12632;DHT22;6381;45.748;12.106;2022-10-17T05:18:07;17.60;99.90
12632;DHT22;6381;45.748;12.106;2022-10-17T05:20:37;15.70;99.90
12632;DHT22;6381;45.748;12.106;2022-10-17T05:23:09;15.60;99.90
12632;DHT22;6381;45.748;12.106;2022-10-17T05:25:42;15.40;99.90
12632;DHT22;6381;45.748;12.106;2022-10-17T05:28:12;15.70;99.90
12632;DHT22;6381;45.748;12.106;2022-10-17T05:30:42;15.70;99.90
12632;DHT22;6381;45.748;12.106;2022-10-17T05:33:11;15.70;99.90
12632;DHT22;6381;45.748;12.106;2022-10-17T05:35:41;15.80;99.90
12632;DHT22;6381;45.748;12.106;2022-10-17T05:38:10;15.60;99.90
12632;DHT22;6381;45.748;12.106;2022-10-17T05:40:41;15.70;99.90
12632;DHT22;6381;45.748;12.106;2022-10-17T05:43:11;16.00;99.90
12632;DHT22;6381;45.748;12.106;2022-10-17T05:45:42;15.80;99.90
12632;DHT22;6381;45.748;12.106;2022-10-17T05:48:17;15.80;99.90
12632;DHT22;6381;45.748;12.106;2022-10-17T05:50:46;15.70;99.90
12632;DHT22;6381;45.748;12.106;2022-10-17T05:53:16;15.60;99.90
12632;DHT22;6381;45.748;12.106;2022-10-17T05:55:55;15.50;99.90
12632;DHT22;6381;45.748;12.106;2022-10-17T05:58:26;15.40;99.90
12632;DHT22;6381;45.748;12.106;2022-10-17T06:01:35;15.30;99.90
12632;DHT22;6381;45.748;12.106;2022-10-17T06:04:04;15.10;99.90
12632;DHT22;6381;45.748;12.106;2022-10-17T06:06:35;15.10;99.90
12632;DHT22;6381;45.748;12.106;2022-10-17T06:09:05;15.20;99.90
12632;DHT22;6381;45.748;12.106;2022-10-17T06:11:37;15.30;99.90
12632;DHT22;6381;45.748;12.106;2022-10-17T06:14:08;15.10;99.90
12632;DHT22;6381;45.748;12.106;2022-10-17T06:16:39;15.10;99.90
12632;DHT22;6381;45.748;12.106;2022-10-17T06:19:10;15.10;99.90
12632;DHT22;6381;45.748;12.106;2022-10-17T06:21:39;15.20;99.90
12632;DHT22;6381;45.748;12.106;2022-10-17T06:24:12;15.40;99.90
12632;DHT22;6381;45.748;12.106;2022-10-17T06:26:42;15.30;99.90
12632;DHT22;6381;45.748;12.106;2022-10-17T06:29:15;15.30;99.90
12632;DHT22;6381;45.748;12.106;2022-10-17T06:31:50;15.30;99.90
12632;DHT22;6381;45.748;12.106;2022-10-17T06:34:20;15.30;99.90
12632;DHT22;6381;45.748;12.106;2022-10-17T06:36:49;15.40;99.90
12632;DHT22;6381;45.748;12.106;2022-10-17T06:39:19;15.30;99.90
12632;DHT22;6381;45.748;12.106;2022-10-17T06:42:03;15.30;99.90
12632;DHT22;6381;45.748;12.106;2022-10-17T06:45:07;15.40;99.90
12632;DHT22;6381;45.748;12.106;2022-10-17T06:47:58;15.50;99.90
12632;DHT22;6381;45.748;12.106;2022-10-17T06:50:49;15.50;99.90
12632;DHT22;6381;45.748;12.106;2022-10-17T06:53:21;15.40;99.90
12632;DHT22;6381;45.748;12.106;2022-10-17T06:56:25;15.70;99.90
12632;DHT22;6381;45.748;12.106;2022-10-17T06:59:13;15.80;99.90
12632;DHT22;6381;45.748;12.106;2022-10-17T07:01:51;15.70;99.90
12632;DHT22;6381;45.748;12.106;2022-10-17T07:04:23;17.00;99.90
12632;DHT22;6381;45.748;12.106;2022-10-17T07:06:54;15.90;99.90
12632;DHT22;6381;45.748;12.106;2022-10-17T07:09:29;15.90;99.90
12632;DHT22;6381;45.748;12.106;2022-10-17T07:11:58;15.90;99.90
12632;DHT22;6381;45.748;12.106;2022-10-17T07:14:28;16.10;99.90
12632;DHT22;6381;45.748;12.106;2022-10-17T07:17:00;16.20;99.90
12632;DHT22;6381;45.748;12.106;2022-10-17T07:19:31;16.40;99.90
12632;DHT22;6381;45.748;12.106;2022-10-17T07:22:01;16.30;99.90
12632;DHT22;6381;45.748;12.106;2022-10-17T07:24:32;16.40;99.90
12632;DHT22;6381;45.748;12.106;2022-10-17T07:27:21;16.70;99.90
12632;DHT22;6381;45.748;12.106;2022-10-17T07:29:51;16.80;99.90
12632;DHT22;6381;45.748;12.106;2022-10-17T07:32:33;16.90;99.90
12632;DHT22;6381;45.748;12.106;2022-10-17T07:35:03;17.00;99.90
12632;DHT22;6381;45.748;12.106;2022-10-17T07:37:33;17.20;99.90
12632;DHT22;6381;45.748;12.106;2022-10-17T07:40:02;17.20;99.90
12632;DHT22;6381;45.748;12.106;2022-10-17T07:42:35;17.30;99.90
12632;DHT22;6381;45.748;12.106;2022-10-17T07:45:10;17.60;99.90
12632;DHT22;6381;45.748;12.106;2022-10-17T07:47:44;17.50;99.90
12632;DHT22;6381;45.748;12.106;2022-10-17T07:50:15;17.70;99.90
12632;DHT22;6381;45.748;12.106;2022-10-17T07:52:44;17.80;99.90
12632;DHT22;6381;45.748;12.106;2022-10-17T07:55:13;18.00;99.90
12632;DHT22;6381;45.748;12.106;2022-10-17T07:57:43;18.10;99.90
12632;DHT22;6381;45.748;12.106;2022-10-17T08:00:12;18.20;99.90
12632;DHT22;6381;45.748;12.106;2022-10-17T08:02:43;18.20;99.90
12632;DHT22;6381;45.748;12.106;2022-10-17T08:05:12;18.30;99.90
12632;DHT22;6381;45.748;12.106;2022-10-17T08:07:42;18.40;99.90
12632;DHT22;6381;45.748;12.106;2022-10-17T08:10:12;18.50;99.90
12632;DHT22;6381;45.748;12.106;2022-10-17T08:12:42;18.40;99.90
12632;DHT22;6381;45.748;12.106;2022-10-17T08:15:11;18.50;99.90
12632;DHT22;6381;45.748;12.106;2022-10-17T08:17:40;18.50;99.90
12632;DHT22;6381;45.748;12.106;2022-10-17T08:20:11;18.50;99.90
12632;DHT22;6381;45.748;12.106;2022-10-17T08:22:41;18.70;99.90
12632;DHT22;6381;45.748;12.106;2022-10-17T08:25:10;18.90;99.90
12632;DHT22;6381;45.748;12.106;2022-10-17T08:27:39;18.70;99.90
12632;DHT22;6381;45.748;12.106;2022-10-17T08:30:09;18.80;99.90
12632;DHT22;6381;45.748;12.106;2022-10-17T08:32:39;18.90;99.90
12632;DHT22;6381;45.748;12.106;2022-10-17T08:35:09;18.80;99.90
12632;DHT22;6381;45.748;12.106;2022-10-17T08:37:39;18.90;99.90
12632;DHT22;6381;45.748;12.106;2022-10-17T08:40:14;19.00;99.90
12632;DHT22;6381;45.748;12.106;2022-10-17T08:42:54;18.90;99.90
12632;DHT22;6381;45.748;12.106;2022-10-17T08:45:31;19.00;99.90
12632;DHT22;6381;45.748;12.106;2022-10-17T08:48:03;19.20;99.90
12632;DHT22;6381;45.748;12.106;2022-10-17T08:50:36;19.10;99.90
12632;DHT22;6381;45.748;12.106;2022-10-17T08:53:14;19.30;99.90
12632;DHT22;6381;45.748;12.106;2022-10-17T08:55:47;19.30;99.90
12632;DHT22;6381;45.748;12.106;2022-10-17T08:58:20;19.20;99.90
12632;DHT22;6381;45.748;12.106;2022-10-17T09:00:58;19.20;99.90
12632;DHT22;6381;45.748;12.106;2022-10-17T09:03:44;19.50;99.90
12632;DHT22;6381;45.748;12.106;2022-10-17T09:06:19;19.20;99.90
12632;DHT22;6381;45.748;12.106;2022-10-17T09:09:04;19.30;99.90
12632;DHT22;6381;45.748;12.106;2022-10-17T09:11:55;19.50;99.90
12632;DHT22;6381;45.748;12.106;2022-10-17T09:14:41;19.60;99.90
12632;DHT22;6381;45.748;12.106;2022-10-17T09:17:20;19.70;99.90
12632;DHT22;6381;45.748;12.106;2022-10-17T09:19:58;19.80;99.90
12632;DHT22;6381;45.748;12.106;2022-10-17T09:22:33;19.80;99.90
12632;DHT22;6381;45.748;12.106;2022-10-17T09:25:12;19.90;99.90
12632;DHT22;6381;45.748;12.106;2022-10-17T09:27:44;20.00;99.90
12632;DHT22;6381;45.748;12.106;2022-10-17T09:30:27;20.30;99.90
12632;DHT22;6381;45.748;12.106;2022-10-17T09:33:16;20.20;99.90
12632;DHT22;6381;45.748;12.106;2022-10-17T09:36:04;20.30;99.90
12632;DHT22;6381;45.748;12.106;2022-10-17T09:38:38;20.40;99.90
12632;DHT22;6381;45.748;12.106;2022-10-17T09:41:15;20.50;99.90
12632;DHT22;6381;45.748;12.106;2022-10-17T09:44:14;20.60;99.90
12632;DHT22;6381;45.748;12.106;2022-10-17T09:46:55;20.70;99.90
12632;DHT22;6381;45.748;12.106;2022-10-17T09:49:32;20.40;99.90
12632;DHT22;6381;45.748;12.106;2022-10-17T09:52:04;20.50;99.90
12632;DHT22;6381;45.748;12.106;2022-10-17T09:54:40;20.80;99.90
12632;DHT22;6381;45.748;12.106;2022-10-17T09:57:12;20.90;99.70
12632;DHT22;6381;45.748;12.106;2022-10-17T09:59:44;20.90;99.40
12632;DHT22;6381;45.748;12.106;2022-10-17T10:02:17;21.00;99.40
12632;DHT22;6381;45.748;12.106;2022-10-17T10:04:58;21.10;99.00
12632;DHT22;6381;45.748;12.106;2022-10-17T10:07:33;21.20;99.00
12632;DHT22;6381;45.748;12.106;2022-10-17T10:10:04;21.20;98.70
12632;DHT22;6381;45.748;12.106;2022-10-17T10:12:37;21.40;98.10
12632;DHT22;6381;45.748;12.106;2022-10-17T10:15:32;21.40;98.20
12632;DHT22;6381;45.748;12.106;2022-10-17T10:18:02;21.60;98.00
12632;DHT22;6381;45.748;12.106;2022-10-17T10:20:33;21.80;97.70
12632;DHT22;6381;45.748;12.106;2022-10-17T10:23:14;21.70;97.00
12632;DHT22;6381;45.748;12.106;2022-10-17T10:25:54;21.70;96.90
12632;DHT22;6381;45.748;12.106;2022-10-17T10:28:28;21.80;95.80
12632;DHT22;6381;45.748;12.106;2022-10-17T10:30:59;21.90;95.70
12632;DHT22;6381;45.748;12.106;2022-10-17T10:33:32;22.00;96.30
12632;DHT22;6381;45.748;12.106;2022-10-17T10:36:08;22.40;95.10
12632;DHT22;6381;45.748;12.106;2022-10-17T10:38:39;22.40;94.50
12632;DHT22;6381;45.748;12.106;2022-10-17T10:41:10;22.50;94.50
12632;DHT22;6381;45.748;12.106;2022-10-17T10:43:42;22.60;94.70
12632;DHT22;6381;45.748;12.106;2022-10-17T10:46:18;22.40;93.90
12632;DHT22;6381;45.748;12.106;2022-10-17T10:48:52;22.90;93.90
12632;DHT22;6381;45.748;12.106;2022-10-17T10:51:26;22.70;93.50
12632;DHT22;6381;45.748;12.106;2022-10-17T10:54:01;22.80;93.30
12632;DHT22;6381;45.748;12.106;2022-10-17T10:56:36;22.90;93.10
12632;DHT22;6381;45.748;12.106;2022-10-17T10:59:12;22.90;92.70
12632;DHT22;6381;45.748;12.106;2022-10-17T11:01:49;22.90;92.00
12632;DHT22;6381;45.748;12.106;2022-10-17T11:04:25;23.40;92.30
12632;DHT22;6381;45.748;12.106;2022-10-17T11:07:01;23.30;90.80
12632;DHT22;6381;45.748;12.106;2022-10-17T11:09:39;23.30;90.70
12632;DHT22;6381;45.748;12.106;2022-10-17T11:12:16;23.50;90.40
12632;DHT22;6381;45.748;12.106;2022-10-17T11:14:52;23.50;89.70
12632;DHT22;6381;45.748;12.106;2022-10-17T11:17:29;23.70;89.00
12632;DHT22;6381;45.748;12.106;2022-10-17T11:20:11;24.00;88.40
12632;DHT22;6381;45.748;12.106;2022-10-17T11:22:45;23.90;88.00
12632;DHT22;6381;45.748;12.106;2022-10-17T11:25:23;24.30;87.10
12632;DHT22;6381;45.748;12.106;2022-10-17T11:27:57;24.80;86.30
12632;DHT22;6381;45.748;12.106;2022-10-17T11:30:41;24.80;85.60
12632;DHT22;6381;45.748;12.106;2022-10-17T11:33:25;24.50;84.50
12632;DHT22;6381;45.748;12.106;2022-10-17T11:36:00;24.20;85.00
12632;DHT22;6381;45.748;12.106;2022-10-17T11:38:43;24.20;86.00
12632;DHT22;6381;45.748;12.106;2022-10-17T11:41:18;24.60;83.90
12632;DHT22;6381;45.748;12.106;2022-10-17T11:43:52;25.40;83.30
12632;DHT22;6381;45.748;12.106;2022-10-17T11:46:24;24.70;81.60
12632;DHT22;6381;45.748;12.106;2022-10-17T11:49:03;24.80;81.20
12632;DHT22;6381;45.748;12.106;2022-10-17T11:51:42;25.30;79.50
12632;DHT22;6381;45.748;12.106;2022-10-17T11:54:34;25.40;79.10
12632;DHT22;6381;45.748;12.106;2022-10-17T11:57:15;25.20;78.60
12632;DHT22;6381;45.748;12.106;2022-10-17T12:00:02;25.80;77.80
12632;DHT22;6381;45.748;12.106;2022-10-17T12:05:30;25.90;79.40
12632;DHT22;6381;45.748;12.106;2022-10-17T12:08:04;26.80;74.90
12632;DHT22;6381;45.748;12.106;2022-10-17T12:10:45;25.80;77.00
12632;DHT22;6381;45.748;12.106;2022-10-17T12:13:45;25.80;76.00
12632;DHT22;6381;45.748;12.106;2022-10-17T12:16:44;25.50;76.90
12632;DHT22;6381;45.748;12.106;2022-10-17T12:19:28;26.00;75.20
12632;DHT22;6381;45.748;12.106;2022-10-17T12:22:19;25.90;75.20
12632;DHT22;6381;45.748;12.106;2022-10-17T12:24:57;25.90;74.00
12632;DHT22;6381;45.748;12.106;2022-10-17T12:27:51;26.80;75.60
12632;DHT22;6381;45.748;12.106;2022-10-17T12:30:30;27.30;71.20
12632;DHT22;6381;45.748;12.106;2022-10-17T12:33:05;26.30;70.80
12632;DHT22;6381;45.748;12.106;2022-10-17T12:35:37;25.50;72.60
12632;DHT22;6381;45.748;12.106;2022-10-17T12:38:27;25.60;73.70
12632;DHT22;6381;45.748;12.106;2022-10-17T12:41:05;27.30;71.10
12632;DHT22;6381;45.748;12.106;2022-10-17T12:43:46;26.60;70.00
12632;DHT22;6381;45.748;12.106;2022-10-17T12:46:43;27.60;70.80
12632;DHT22;6381;45.748;12.106;2022-10-17T12:49:35;27.50;67.90
12632;DHT22;6381;45.748;12.106;2022-10-17T12:52:18;27.10;67.50
12632;DHT22;6381;45.748;12.106;2022-10-17T12:55:06;27.60;67.20
12632;DHT22;6381;45.748;12.106;2022-10-17T12:57:50;27.20;65.50
12632;DHT22;6381;45.748;12.106;2022-10-17T13:00:27;26.60;66.50
12632;DHT22;6381;45.748;12.106;2022-10-17T13:03:04;26.80;66.80
12632;DHT22;6381;45.748;12.106;2022-10-17T13:05:37;27.60;66.80
12632;DHT22;6381;45.748;12.106;2022-10-17T13:08:18;27.80;65.40
12632;DHT22;6381;45.748;12.106;2022-10-17T13:10:50;28.10;64.10
12632;DHT22;6381;45.748;12.106;2022-10-17T13:13:21;28.50;63.70
12632;DHT22;6381;45.748;12.106;2022-10-17T13:15:53;29.00;62.90
12632;DHT22;6381;45.748;12.106;2022-10-17T13:18:24;28.70;61.00
12632;DHT22;6381;45.748;12.106;2022-10-17T13:20:56;29.30;60.80
12632;DHT22;6381;45.748;12.106;2022-10-17T13:23:30;29.80;60.80
12632;DHT22;6381;45.748;12.106;2022-10-17T13:26:10;30.20;59.30
12632;DHT22;6381;45.748;12.106;2022-10-17T13:28:40;28.70;58.00
12632;DHT22;6381;45.748;12.106;2022-10-17T13:31:31;27.20;60.20
12632;DHT22;6381;45.748;12.106;2022-10-17T13:34:02;27.10;61.70
12632;DHT22;6381;45.748;12.106;2022-10-17T13:36:35;27.00;61.20
12632;DHT22;6381;45.748;12.106;2022-10-17T13:39:08;26.90;62.00
12632;DHT22;6381;45.748;12.106;2022-10-17T13:41:44;27.10;61.80
12632;DHT22;6381;45.748;12.106;2022-10-17T13:44:17;28.20;62.10
12632;DHT22;6381;45.748;12.106;2022-10-17T13:46:47;29.10;60.40
12632;DHT22;6381;45.748;12.106;2022-10-17T13:49:20;29.20;60.20
12632;DHT22;6381;45.748;12.106;2022-10-17T13:51:54;29.40;59.80
12632;DHT22;6381;45.748;12.106;2022-10-17T13:54:35;29.70;57.60
12632;DHT22;6381;45.748;12.106;2022-10-17T13:57:05;29.90;58.30
12632;DHT22;6381;45.748;12.106;2022-10-17T13:59:44;29.40;57.40
12632;DHT22;6381;45.748;12.106;2022-10-17T14:02:18;29.00;57.70
12632;DHT22;6381;45.748;12.106;2022-10-17T14:04:59;29.50;58.40
12632;DHT22;6381;45.748;12.106;2022-10-17T14:07:50;29.40;56.60
12632;DHT22;6381;45.748;12.106;2022-10-17T14:10:42;29.50;56.40
12632;DHT22;6381;45.748;12.106;2022-10-17T14:13:21;29.20;56.40
12632;DHT22;6381;45.748;12.106;2022-10-17T14:15:51;27.30;57.60
12632;DHT22;6381;45.748;12.106;2022-10-17T14:18:24;27.40;58.60
12632;DHT22;6381;45.748;12.106;2022-10-17T14:21:03;28.10;59.30
12632;DHT22;6381;45.748;12.106;2022-10-17T14:24:11;28.50;57.20
12632;DHT22;6381;45.748;12.106;2022-10-17T14:26:50;27.10;59.70
12632;DHT22;6381;45.748;12.106;2022-10-17T14:29:23;26.40;61.10
12632;DHT22;6381;45.748;12.106;2022-10-17T14:32:01;26.10;61.60
12632;DHT22;6381;45.748;12.106;2022-10-17T14:34:33;26.00;62.30
12632;DHT22;6381;45.748;12.106;2022-10-17T14:37:08;25.70;63.10
12632;DHT22;6381;45.748;12.106;2022-10-17T14:39:38;26.00;63.40
12632;DHT22;6381;45.748;12.106;2022-10-17T14:42:17;26.50;62.90
12632;DHT22;6381;45.748;12.106;2022-10-17T14:44:49;26.40;62.60
12632;DHT22;6381;45.748;12.106;2022-10-17T14:47:20;26.40;62.50
12632;DHT22;6381;45.748;12.106;2022-10-17T14:50:24;26.40;62.50
12632;DHT22;6381;45.748;12.106;2022-10-17T14:53:01;26.70;63.40
12632;DHT22;6381;45.748;12.106;2022-10-17T14:55:33;26.90;63.30
12632;DHT22;6381;45.748;12.106;2022-10-17T14:58:16;26.50;64.90
12632;DHT22;6381;45.748;12.106;2022-10-17T15:00:48;26.80;64.60
12632;DHT22;6381;45.748;12.106;2022-10-17T15:03:17;26.80;64.50
12632;DHT22;6381;45.748;12.106;2022-10-17T15:05:47;26.90;65.60
12632;DHT22;6381;45.748;12.106;2022-10-17T15:08:18;26.90;64.30
12632;DHT22;6381;45.748;12.106;2022-10-17T15:10:48;26.00;65.50
12632;DHT22;6381;45.748;12.106;2022-10-17T15:13:19;25.20;67.40
12632;DHT22;6381;45.748;12.106;2022-10-17T15:16:01;25.30;68.30
12632;DHT22;6381;45.748;12.106;2022-10-17T15:18:30;25.20;69.30
12632;DHT22;6381;45.748;12.106;2022-10-17T15:21:00;25.60;69.80
12632;DHT22;6381;45.748;12.106;2022-10-17T15:23:38;25.30;70.60
12632;DHT22;6381;45.748;12.106;2022-10-17T15:26:19;25.60;70.30
12632;DHT22;6381;45.748;12.106;2022-10-17T15:28:51;25.20;71.30
12632;DHT22;6381;45.748;12.106;2022-10-17T15:31:21;24.70;73.30
12632;DHT22;6381;45.748;12.106;2022-10-17T15:33:51;24.50;75.20
12632;DHT22;6381;45.748;12.106;2022-10-17T15:36:22;24.60;76.00
12632;DHT22;6381;45.748;12.106;2022-10-17T15:38:53;24.50;76.60
12632;DHT22;6381;45.748;12.106;2022-10-17T15:41:24;24.50;77.60
12632;DHT22;6381;45.748;12.106;2022-10-17T15:43:55;24.10;79.20
12632;DHT22;6381;45.748;12.106;2022-10-17T15:46:26;24.10;80.70
12632;DHT22;6381;45.748;12.106;2022-10-17T15:48:56;23.80;82.10
12632;DHT22;6381;45.748;12.106;2022-10-17T15:51:29;23.60;84.30
12632;DHT22;6381;45.748;12.106;2022-10-17T15:53:58;23.40;85.30
12632;DHT22;6381;45.748;12.106;2022-10-17T15:56:29;23.40;86.90
12632;DHT22;6381;45.748;12.106;2022-10-17T15:59:01;23.40;87.70
12632;DHT22;6381;45.748;12.106;2022-10-17T16:01:31;23.30;88.40
12632;DHT22;6381;45.748;12.106;2022-10-17T16:04:01;23.20;89.60
12632;DHT22;6381;45.748;12.106;2022-10-17T16:06:30;23.20;90.30
12632;DHT22;6381;45.748;12.106;2022-10-17T16:09:00;23.10;90.60
12632;DHT22;6381;45.748;12.106;2022-10-17T16:11:32;22.90;91.00
12632;DHT22;6381;45.748;12.106;2022-10-17T16:14:06;23.00;91.40
12632;DHT22;6381;45.748;12.106;2022-10-17T16:16:35;22.90;91.60
12632;DHT22;6381;45.748;12.106;2022-10-17T16:19:05;22.80;92.00
12632;DHT22;6381;45.748;12.106;2022-10-17T16:21:36;22.80;92.40
12632;DHT22;6381;45.748;12.106;2022-10-17T16:24:08;22.70;93.10
12632;DHT22;6381;45.748;12.106;2022-10-17T16:26:37;22.70;93.20
12632;DHT22;6381;45.748;12.106;2022-10-17T16:29:08;22.60;93.40
12632;DHT22;6381;45.748;12.106;2022-10-17T16:31:41;22.50;94.20